Time;durP1;ratioP1;P1;durP2;ratioP2;P2;SDS_P1;SDS_P2;PMS_P1;PMS_P2;Temp;Humidity;BMP_temperature;BMP_pressure;BME280_temperature;BME280_humidity;BME280_pressure;Samples;Min_cycle;Max_cycle;Signal;HPM_P1;HPM_P2
2023/01/07 00:00:50;;;;;;;2.40;1.13;;;10.10;99.90;;;;;;5082504;28;20228;-82
2023/01/07 00:03:15;;;;;;;1.57;1.10;;;10.10;99.90;;;;;;5082444;28;20239;-82
2023/01/07 00:05:42;;;;;;;3.37;1.13;;;10.10;99.90;;;;;;5083945;28;20175;-83
2023/01/07 00:08:08;;;;;;;2.50;1.10;;;10.10;99.90;;;;;;5083163;28;20193;-84
2023/01/07 00:10:34;;;;;;;1.73;1.00;;;10.10;99.90;;;;;;5084656;28;20265;-83
2023/01/07 00:12:59;;;;;;;2.97;1.27;;;10.20;99.90;;;;;;5084203;28;20182;-83
2023/01/07 00:15:25;;;;;;;1.57;1.20;;;10.20;99.90;;;;;;5082140;28;20203;-83
2023/01/07 00:17:50;;;;;;;2.23;1.07;;;10.10;99.90;;;;;;5083736;28;20210;-82
2023/01/07 00:20:16;;;;;;;2.63;1.10;;;10.20;99.90;;;;;;5084082;28;20178;-83
2023/01/07 00:22:42;;;;;;;1.30;0.97;;;10.10;99.90;;;;;;5081916;28;20554;-83
2023/01/07 00:25:07;;;;;;;1.67;1.20;;;10.20;99.90;;;;;;5082388;28;20171;-83
2023/01/07 00:27:33;;;;;;;1.37;1.17;;;10.20;99.90;;;;;;5081569;28;20275;-83
2023/01/07 00:29:58;;;;;;;2.30;1.23;;;10.20;99.90;;;;;;5082141;28;20179;-82
2023/01/07 00:32:46;;;;;;;2.20;1.20;;;10.20;99.90;;;;;;5081620;28;20181;-82
2023/01/07 00:35:21;;;;;;;1.20;1.10;;;10.20;99.90;;;;;;5083236;28;20232;-84
2023/01/07 00:37:51;;;;;;;2.47;1.10;;;10.30;99.90;;;;;;5081990;28;20213;-84
2023/01/07 00:40:17;;;;;;;0.80;0.70;;;10.30;99.90;;;;;;5082235;28;20642;-83
2023/01/07 00:43:00;;;;;;;1.10;0.97;;;10.30;99.90;;;;;;5083792;28;20667;-82
2023/01/07 00:45:28;;;;;;;1.10;1.00;;;10.30;99.90;;;;;;5083726;28;20574;-83
2023/01/07 00:47:55;;;;;;;1.10;0.90;;;10.30;99.90;;;;;;5084010;28;20568;-83
2023/01/07 00:50:22;;;;;;;1.77;1.07;;;10.30;99.90;;;;;;5081607;28;20187;-83
2023/01/07 00:52:47;;;;;;;1.53;0.97;;;10.30;99.90;;;;;;5082977;28;20566;-84
2023/01/07 00:55:13;;;;;;;1.30;0.80;;;10.30;99.90;;;;;;5082277;28;20219;-83
2023/01/07 00:57:40;;;;;;;2.23;1.07;;;10.40;99.90;;;;;;5082620;28;20691;-82
2023/01/07 01:00:07;;;;;;;2.60;0.70;;;10.30;99.90;;;;;;5082748;28;20171;-83
2023/01/07 01:02:33;;;;;;;5.23;0.90;;;10.30;99.90;;;;;;5081714;28;20181;-83
2023/01/07 01:04:58;;;;;;;3.13;0.83;;;10.30;99.90;;;;;;5083283;28;20257;-83
2023/01/07 01:07:24;;;;;;;1.20;1.00;;;10.30;99.90;;;;;;5082712;28;20200;-83
2023/01/07 01:09:49;;;;;;;1.37;0.90;;;10.30;99.90;;;;;;5084299;28;20258;-83
2023/01/07 01:12:15;;;;;;;3.53;1.13;;;10.30;99.90;;;;;;5082479;28;20193;-83
2023/01/07 01:14:40;;;;;;;1.83;1.10;;;10.20;99.90;;;;;;5083369;28;20175;-82
2023/01/07 01:17:06;;;;;;;1.83;0.93;;;10.20;99.90;;;;;;5083675;28;20599;-82
2023/01/07 01:19:31;;;;;;;1.43;0.90;;;10.20;99.90;;;;;;5085586;28;20202;-84
2023/01/07 01:21:57;;;;;;;1.47;1.10;;;10.20;99.90;;;;;;5086210;28;20223;-82
2023/01/07 01:24:23;;;;;;;1.60;1.10;;;10.20;99.90;;;;;;5090881;28;20171;-83
2023/01/07 01:26:48;;;;;;;1.23;0.80;;;10.30;99.90;;;;;;5094283;28;20183;-83
2023/01/07 01:29:14;;;;;;;2.13;1.10;;;10.60;99.90;;;;;;5093765;28;20171;-84
2023/01/07 01:31:39;;;;;;;1.80;1.00;;;10.20;99.90;;;;;;5084738;28;20210;-83
2023/01/07 01:34:05;;;;;;;0.93;0.83;;;10.30;99.90;;;;;;5082953;28;20179;-83
2023/01/07 01:36:30;;;;;;;3.07;0.90;;;10.30;99.90;;;;;;5082265;28;20191;-83
2023/01/07 01:38:56;;;;;;;1.57;0.90;;;10.30;99.90;;;;;;5080731;28;20556;-83
2023/01/07 01:41:21;;;;;;;1.97;1.10;;;10.20;99.90;;;;;;5082933;28;20181;-83
2023/01/07 01:43:47;;;;;;;0.97;0.87;;;10.30;99.90;;;;;;5082465;28;20716;-83
2023/01/07 01:46:34;;;;;;;1.53;1.13;;;10.20;99.90;;;;;;5080914;28;20178;-83
2023/01/07 01:49:24;;;;;;;1.80;0.90;;;10.30;99.90;;;;;;5080849;28;20218;-83
2023/01/07 01:51:58;;;;;;;3.60;0.97;;;10.20;99.90;;;;;;5075947;28;20228;-83
2023/01/07 01:54:25;;;;;;;1.23;0.93;;;10.30;99.90;;;;;;5080024;28;20259;-82
2023/01/07 01:56:53;;;;;;;1.00;0.87;;;10.30;99.90;;;;;;5080252;28;20195;-83
2023/01/07 01:59:23;;;;;;;2.87;1.10;;;10.20;99.90;;;;;;5081781;28;20163;-83
2023/01/07 02:01:49;;;;;;;2.10;0.93;;;10.20;99.90;;;;;;5082397;28;20195;-83
2023/01/07 02:04:21;;;;;;;1.07;0.97;;;10.20;99.90;;;;;;5080268;28;20175;-83
2023/01/07 02:07:13;;;;;;;0.73;0.73;;;10.20;99.90;;;;;;5080416;28;20174;-83
2023/01/07 02:09:39;;;;;;;1.07;0.77;;;10.20;99.90;;;;;;5080633;28;20194;-83
2023/01/07 02:12:26;;;;;;;2.23;1.00;;;10.20;99.90;;;;;;5080567;28;20198;-83
2023/01/07 02:15:15;;;;;;;0.90;0.60;;;10.20;99.90;;;;;;5082424;28;20171;-83
2023/01/07 02:17:54;;;;;;;3.20;0.90;;;10.20;99.90;;;;;;5080628;28;20260;-83
2023/01/07 02:20:36;;;;;;;1.90;0.97;;;10.20;99.90;;;;;;5079351;28;20174;-83
2023/01/07 02:23:40;;;;;;;0.70;0.70;;;10.20;99.90;;;;;;5081575;28;20204;-83
2023/01/07 02:26:14;;;;;;;5.63;0.80;;;10.20;99.90;;;;;;5081557;28;20223;-83
2023/01/07 02:28:54;;;;;;;4.80;0.80;;;10.20;99.90;;;;;;5081625;28;20258;-83
2023/01/07 02:31:53;;;;;;;1.57;0.80;;;10.20;99.90;;;;;;5080619;28;20554;-83
2023/01/07 02:34:46;;;;;;;1.17;1.00;;;10.20;99.90;;;;;;5082072;28;20159;-83
2023/01/07 02:37:46;;;;;;;1.40;0.70;;;10.20;99.90;;;;;;5082203;28;20203;-83
2023/01/07 02:40:19;;;;;;;1.53;0.73;;;10.10;99.90;;;;;;5075723;28;20289;-82
2023/01/07 02:43:10;;;;;;;0.70;0.70;;;10.20;99.90;;;;;;5082131;28;20164;-83
2023/01/07 02:46:02;;;;;;;2.17;0.70;;;10.20;99.90;;;;;;5080569;28;20655;-84
2023/01/07 02:48:29;;;;;;;1.33;0.70;;;10.20;99.90;;;;;;5081425;28;20272;-83
2023/01/07 02:50:55;;;;;;;1.23;0.70;;;10.30;99.90;;;;;;5080699;28;20163;-83
2023/01/07 02:53:21;;;;;;;0.73;0.70;;;10.20;99.90;;;;;;5080377;28;20197;-83
2023/01/07 02:56:07;;;;;;;1.57;0.80;;;10.20;99.90;;;;;;5081752;28;20206;-83
2023/01/07 02:58:54;;;;;;;0.80;0.70;;;10.20;99.90;;;;;;5080389;28;20190;-83
2023/01/07 03:01:39;;;;;;;0.77;0.70;;;10.20;99.90;;;;;;5079442;28;20758;-82
2023/01/07 03:04:30;;;;;;;2.20;0.90;;;10.20;99.90;;;;;;5080841;28;20158;-83
2023/01/07 03:07:27;;;;;;;0.80;0.60;;;10.20;99.90;;;;;;5080417;28;20173;-84
2023/01/07 03:10:10;;;;;;;2.57;0.87;;;10.20;99.90;;;;;;5097258;22;20218;-81
2023/01/07 03:12:45;;;;;;;0.97;0.80;;;10.20;99.90;;;;;;5064303;28;20163;-80
2023/01/07 03:15:24;;;;;;;1.37;0.70;;;10.10;99.90;;;;;;5064106;28;20169;-80
2023/01/07 03:17:58;;;;;;;1.77;0.80;;;10.20;99.90;;;;;;5082803;28;20197;-80
2023/01/07 03:20:24;;;;;;;1.77;0.80;;;10.10;99.90;;;;;;5082076;28;20183;-81
2023/01/07 03:22:52;;;;;;;0.83;0.77;;;10.20;99.90;;;;;;5063429;28;20194;-80
2023/01/07 03:25:20;;;;;;;1.53;1.03;;;10.20;99.90;;;;;;5081215;28;20691;-81
2023/01/07 03:27:47;;;;;;;0.60;0.60;;;10.20;99.90;;;;;;5062619;28;20257;-80
2023/01/07 03:30:15;;;;;;;0.70;0.60;;;10.20;99.90;;;;;;5081457;28;20202;-80
2023/01/07 03:32:50;;;;;;;3.43;0.87;;;10.20;99.90;;;;;;5063539;28;20270;-78
2023/01/07 03:35:19;;;;;;;0.90;0.80;;;10.10;99.90;;;;;;5063867;28;20699;-81
2023/01/07 03:37:45;;;;;;;3.07;0.70;;;10.10;99.90;;;;;;5082004;28;20198;-80
2023/01/07 03:40:11;;;;;;;1.00;0.70;;;10.10;99.90;;;;;;5063555;28;20197;-80
2023/01/07 03:42:39;;;;;;;1.17;0.73;;;10.10;99.90;;;;;;5063997;28;20175;-80
2023/01/07 03:45:19;;;;;;;1.13;0.83;;;10.10;99.90;;;;;;5082189;28;20215;-81
2023/01/07 03:47:50;;;;;;;1.33;0.80;;;10.10;99.90;;;;;;5064575;28;20241;-81
2023/01/07 03:50:16;;;;;;;1.03;0.80;;;10.00;99.90;;;;;;5064145;28;20668;-80
2023/01/07 03:52:42;;;;;;;1.90;0.87;;;10.00;99.90;;;;;;5082141;28;20186;-81
2023/01/07 03:55:09;;;;;;;1.23;0.90;;;10.00;99.90;;;;;;5064172;28;20183;-80
2023/01/07 03:57:35;;;;;;;2.60;1.17;;;10.00;99.90;;;;;;5081687;28;20202;-80
2023/01/07 04:00:01;;;;;;;1.20;0.80;;;10.00;99.90;;;;;;5063189;28;20201;-81
2023/01/07 04:02:26;;;;;;;1.50;1.10;;;9.90;99.90;;;;;;5081477;28;20236;-81
2023/01/07 04:04:52;;;;;;;2.17;1.10;;;10.00;99.90;;;;;;5064015;28;20266;-81
2023/01/07 04:07:18;;;;;;;1.63;0.90;;;9.90;99.90;;;;;;5081772;28;20198;-81
2023/01/07 04:09:46;;;;;;;0.90;0.70;;;9.90;99.90;;;;;;5081921;28;20214;-80
2023/01/07 04:12:12;;;;;;;0.83;0.70;;;9.80;99.90;;;;;;5081296;28;20741;-81
2023/01/07 04:14:38;;;;;;;1.20;1.00;;;9.80;99.90;;;;;;5080942;28;20170;-81
2023/01/07 04:17:04;;;;;;;0.97;0.87;;;9.80;99.90;;;;;;5063499;28;20229;-80
2023/01/07 04:19:29;;;;;;;1.00;0.90;;;9.80;99.90;;;;;;5081896;28;20660;-81
2023/01/07 04:21:55;;;;;;;0.90;0.70;;;9.80;99.90;;;;;;5062453;28;20238;-81
2023/01/07 04:24:21;;;;;;;1.97;1.00;;;9.80;99.90;;;;;;5063130;28;20171;-81
2023/01/07 04:26:46;;;;;;;1.07;0.73;;;9.80;99.90;;;;;;5081383;28;20263;-80
2023/01/07 04:29:12;;;;;;;1.20;0.90;;;9.80;99.90;;;;;;5063162;28;20264;-81
2023/01/07 04:31:37;;;;;;;2.67;1.00;;;9.80;99.90;;;;;;5063183;28;20269;-80
2023/01/07 04:34:03;;;;;;;2.43;0.90;;;9.80;99.90;;;;;;5064223;28;20183;-80
2023/01/07 04:36:28;;;;;;;1.83;0.90;;;9.80;99.90;;;;;;5063169;28;20202;-80
2023/01/07 04:38:54;;;;;;;1.27;1.03;;;9.70;99.90;;;;;;5063769;28;20190;-81
2023/01/07 04:41:20;;;;;;;2.50;0.90;;;9.80;99.90;;;;;;5082406;28;20205;-80
2023/01/07 04:43:45;;;;;;;2.50;1.00;;;9.80;99.90;;;;;;5064095;28;20266;-80
2023/01/07 04:46:11;;;;;;;1.17;0.80;;;9.80;99.90;;;;;;5082503;28;20182;-81
2023/01/07 04:48:36;;;;;;;1.03;0.90;;;9.80;99.90;;;;;;5082366;28;20179;-81
2023/01/07 04:51:02;;;;;;;1.30;0.90;;;9.80;99.90;;;;;;5081036;28;20182;-80
2023/01/07 04:53:27;;;;;;;0.77;0.77;;;9.80;99.90;;;;;;5078600;28;20555;-79
2023/01/07 04:55:53;;;;;;;0.97;0.87;;;9.70;99.90;;;;;;5078875;28;20182;-81
2023/01/07 04:58:19;;;;;;;1.73;1.00;;;9.80;99.90;;;;;;5063103;28;20175;-81
2023/01/07 05:00:45;;;;;;;2.60;0.90;;;9.70;99.90;;;;;;5080666;28;20201;-81
2023/01/07 05:03:11;;;;;;;2.23;1.00;;;9.80;99.90;;;;;;5062824;28;20183;-78
2023/01/07 05:05:36;;;;;;;1.33;1.00;;;9.70;99.90;;;;;;5062236;28;20233;-81
2023/01/07 05:08:02;;;;;;;1.43;1.00;;;9.70;99.90;;;;;;5062799;28;20202;-81
2023/01/07 05:10:27;;;;;;;0.90;0.80;;;9.70;99.90;;;;;;5061982;28;20219;-81
2023/01/07 05:12:53;;;;;;;1.27;0.90;;;9.70;99.90;;;;;;5080629;28;20183;-81
2023/01/07 05:15:19;;;;;;;1.73;1.10;;;9.70;99.90;;;;;;5080198;28;20179;-81
2023/01/07 05:17:44;;;;;;;1.10;1.00;;;9.70;99.90;;;;;;5080207;28;20242;-81
2023/01/07 05:20:10;;;;;;;1.13;0.80;;;9.70;99.90;;;;;;5080405;28;20194;-80
2023/01/07 05:22:36;;;;;;;1.10;1.00;;;9.70;99.90;;;;;;5080295;28;20174;-81
2023/01/07 05:25:02;;;;;;;1.00;0.90;;;9.60;99.90;;;;;;5080583;28;20540;-81
2023/01/07 05:27:27;;;;;;;2.00;1.00;;;9.60;99.90;;;;;;5080072;28;20183;-81
2023/01/07 05:29:53;;;;;;;1.17;0.90;;;9.50;99.90;;;;;;5080914;28;20210;-81
2023/01/07 05:32:19;;;;;;;2.93;0.83;;;9.50;99.90;;;;;;5061618;28;20185;-80
2023/01/07 05:34:44;;;;;;;1.20;1.10;;;9.50;99.90;;;;;;5062377;28;20198;-80
2023/01/07 05:37:10;;;;;;;1.00;0.90;;;9.50;99.90;;;;;;5080291;28;20538;-81
2023/01/07 05:39:35;;;;;;;1.13;1.00;;;9.50;99.90;;;;;;5061744;28;20679;-81
2023/01/07 05:42:01;;;;;;;1.13;0.90;;;9.50;99.90;;;;;;5062169;28;20171;-81
2023/01/07 05:44:26;;;;;;;1.43;1.00;;;9.40;99.90;;;;;;5079418;28;20178;-81
2023/01/07 05:46:52;;;;;;;1.30;1.20;;;9.40;99.90;;;;;;5061969;28;20185;-81
2023/01/07 05:49:17;;;;;;;1.17;1.07;;;9.40;99.90;;;;;;5080310;28;20207;-80
2023/01/07 05:51:43;;;;;;;2.00;0.97;;;9.30;99.90;;;;;;5062283;28;20602;-81
2023/01/07 05:54:08;;;;;;;1.53;1.30;;;9.30;99.90;;;;;;5079688;28;20187;-80
2023/01/07 05:56:34;;;;;;;1.27;1.07;;;9.30;99.90;;;;;;5079750;28;20206;-81
2023/01/07 05:59:00;;;;;;;1.37;1.20;;;9.30;99.90;;;;;;5079926;28;20252;-81
2023/01/07 06:01:26;;;;;;;1.23;1.13;;;9.20;99.90;;;;;;5079549;28;20239;-81
2023/01/07 06:03:58;;;;;;;2.33;1.13;;;9.20;99.90;;;;;;5077312;28;20550;-79
2023/01/07 06:06:24;;;;;;;1.93;1.20;;;9.20;99.90;;;;;;5075512;28;20229;-81
2023/01/07 06:08:49;;;;;;;1.27;0.97;;;9.20;99.90;;;;;;5077200;28;20205;-81
2023/01/07 06:11:15;;;;;;;4.47;1.30;;;9.10;99.90;;;;;;5077441;28;20175;-80
2023/01/07 06:13:40;;;;;;;3.37;1.17;;;9.10;99.90;;;;;;5075860;28;20179;-81
2023/01/07 06:16:07;;;;;;;1.60;1.10;;;9.10;99.90;;;;;;5077572;28;20734;-81
2023/01/07 06:18:34;;;;;;;1.50;1.10;;;9.00;99.90;;;;;;5076112;28;20171;-79
2023/01/07 06:20:59;;;;;;;1.80;1.27;;;9.00;99.90;;;;;;5076006;28;20179;-81
2023/01/07 06:23:25;;;;;;;1.53;1.33;;;9.00;99.90;;;;;;5077382;28;20206;-81
2023/01/07 06:25:51;;;;;;;2.17;1.10;;;9.00;99.90;;;;;;5077361;28;20658;-81
2023/01/07 06:28:16;;;;;;;1.30;1.20;;;8.90;99.90;;;;;;5076132;28;20171;-80
2023/01/07 06:30:46;;;;;;;2.53;1.10;;;8.90;99.90;;;;;;5076230;28;20206;-81
2023/01/07 06:33:12;;;;;;;1.47;1.00;;;8.90;99.90;;;;;;5076046;28;20228;-81
2023/01/07 06:35:39;;;;;;;1.70;1.50;;;8.90;99.90;;;;;;5076394;28;20175;-80
2023/01/07 06:38:04;;;;;;;1.40;1.20;;;8.90;99.90;;;;;;5077875;28;20524;-81
2023/01/07 06:40:30;;;;;;;2.23;1.57;;;8.90;99.90;;;;;;5078280;28;20228;-81
2023/01/07 06:42:56;;;;;;;1.20;1.10;;;8.80;99.90;;;;;;5077804;28;20226;-79
2023/01/07 06:45:21;;;;;;;4.37;1.40;;;8.80;99.90;;;;;;5091665;28;20251;-77
2023/01/07 06:47:47;;;;;;;2.77;1.30;;;8.90;99.90;;;;;;5090707;28;20198;-79
2023/01/07 06:50:13;;;;;;;2.97;1.30;;;8.90;99.90;;;;;;5079007;28;20209;-81
2023/01/07 06:52:39;;;;;;;1.33;1.10;;;8.90;99.90;;;;;;5078341;28;20205;-81
2023/01/07 06:55:05;;;;;;;2.27;1.30;;;8.90;99.90;;;;;;5076315;28;20175;-80
2023/01/07 06:57:30;;;;;;;2.07;1.50;;;8.90;99.90;;;;;;5077116;28;20277;-81
2023/01/07 06:59:56;;;;;;;2.97;1.40;;;9.00;99.90;;;;;;5077031;28;20222;-81
2023/01/07 07:02:24;;;;;;;5.23;1.30;;;9.00;99.90;;;;;;5076134;28;20211;-80
2023/01/07 07:04:50;;;;;;;1.90;1.13;;;9.10;99.90;;;;;;5077335;28;20562;-80
2023/01/07 07:07:16;;;;;;;1.80;1.00;;;9.10;99.90;;;;;;5076748;28;20177;-79
2023/01/07 07:09:42;;;;;;;1.67;1.27;;;9.10;99.90;;;;;;5077705;28;20206;-80
2023/01/07 07:12:08;;;;;;;3.60;1.50;;;9.20;99.90;;;;;;5076803;28;20175;-81
2023/01/07 07:14:34;;;;;;;2.23;1.40;;;9.20;99.90;;;;;;5067165;28;20543;-81
2023/01/07 07:17:00;;;;;;;1.83;1.20;;;9.20;99.90;;;;;;5063335;28;20183;-80
2023/01/07 07:19:25;;;;;;;3.80;1.47;;;9.20;99.90;;;;;;5063910;28;20191;-80
2023/01/07 07:21:51;;;;;;;1.97;1.37;;;9.30;99.90;;;;;;5064033;28;20659;-81
2023/01/07 07:24:16;;;;;;;2.00;1.30;;;9.30;99.90;;;;;;5062327;28;20211;-80
2023/01/07 07:26:42;;;;;;;2.37;1.43;;;9.40;99.90;;;;;;5063539;28;20184;-81
2023/01/07 07:29:09;;;;;;;3.40;1.50;;;9.30;99.90;;;;;;5063784;28;20196;-80
2023/01/07 07:31:35;;;;;;;2.00;1.80;;;9.40;99.90;;;;;;5061435;28;20262;-80
2023/01/07 07:34:00;;;;;;;2.40;1.70;;;9.40;99.90;;;;;;5063651;28;20241;-81
2023/01/07 07:36:26;;;;;;;1.60;1.43;;;9.40;99.90;;;;;;5062764;28;20175;-81
2023/01/07 07:38:51;;;;;;;2.93;1.50;;;9.40;99.90;;;;;;5063873;28;20192;-81
2023/01/07 07:41:17;;;;;;;2.60;1.37;;;9.40;99.90;;;;;;5064242;28;20176;-80
2023/01/07 07:43:42;;;;;;;2.17;1.43;;;9.50;99.90;;;;;;5063128;28;20207;-81
2023/01/07 07:46:08;;;;;;;2.33;1.60;;;9.50;99.90;;;;;;5063481;28;20172;-80
2023/01/07 07:48:33;;;;;;;2.47;1.40;;;9.50;99.90;;;;;;5063429;28;20176;-80
2023/01/07 07:50:59;;;;;;;2.93;1.30;;;9.50;99.90;;;;;;5063672;28;20176;-81
2023/01/07 07:53:24;;;;;;;1.50;1.30;;;9.50;99.90;;;;;;5061902;28;20176;-80
2023/01/07 07:55:52;;;;;;;1.60;1.50;;;9.50;99.90;;;;;;5063290;28;20183;-81
2023/01/07 07:58:17;;;;;;;1.37;1.27;;;9.50;99.90;;;;;;5064551;28;20168;-81
2023/01/07 08:00:43;;;;;;;2.20;1.10;;;9.50;99.90;;;;;;5063667;28;20240;-81
2023/01/07 08:03:09;;;;;;;4.37;1.70;;;9.60;99.90;;;;;;5064167;28;20210;-80
2023/01/07 08:05:38;;;;;;;0.97;0.90;;;9.60;99.90;;;;;;5065188;28;20167;-81
2023/01/07 08:08:04;;;;;;;1.40;1.20;;;9.60;99.90;;;;;;5064409;28;20168;-81
2023/01/07 08:10:29;;;;;;;4.60;1.30;;;9.60;99.90;;;;;;5064611;28;20215;-81
2023/01/07 08:12:55;;;;;;;1.77;1.30;;;9.60;99.90;;;;;;5063953;28;20177;-81
2023/01/07 08:15:20;;;;;;;1.63;1.23;;;9.70;99.90;;;;;;5063424;28;20183;-80
2023/01/07 08:17:46;;;;;;;1.30;1.20;;;9.70;99.90;;;;;;5064590;28;20175;-79
2023/01/07 08:20:11;;;;;;;1.83;1.30;;;9.70;99.90;;;;;;5067676;28;20202;-77
2023/01/07 08:22:37;;;;;;;1.83;1.20;;;9.70;99.90;;;;;;5076669;28;20184;-78
2023/01/07 08:25:03;;;;;;;2.37;1.40;;;9.70;99.90;;;;;;5075874;28;20164;-80
2023/01/07 08:27:28;;;;;;;2.63;1.27;;;9.70;99.90;;;;;;5062219;28;20243;-80
2023/01/07 08:29:54;;;;;;;1.73;1.30;;;9.70;99.90;;;;;;5061498;28;20686;-81
2023/01/07 08:32:20;;;;;;;1.20;1.10;;;9.80;99.90;;;;;;5062743;28;20172;-81
2023/01/07 08:34:46;;;;;;;1.40;1.10;;;9.80;99.90;;;;;;5061572;28;20306;-79
2023/01/07 08:37:12;;;;;;;2.37;1.40;;;9.80;99.90;;;;;;5062995;28;20686;-80
2023/01/07 08:39:37;;;;;;;2.00;1.23;;;9.80;99.90;;;;;;5059381;28;20286;-79
2023/01/07 08:42:03;;;;;;;2.13;1.17;;;9.90;99.90;;;;;;5054968;28;20623;-80
2023/01/07 08:44:28;;;;;;;2.70;1.27;;;9.90;99.90;;;;;;5056349;28;20585;-79
2023/01/07 08:46:54;;;;;;;1.50;0.90;;;9.90;99.90;;;;;;5054837;28;20647;-80
2023/01/07 08:49:20;;;;;;;2.00;1.00;;;9.90;99.90;;;;;;5055595;28;20187;-79
2023/01/07 08:51:45;;;;;;;3.07;1.30;;;9.90;99.90;;;;;;5055871;28;20179;-80
2023/01/07 08:54:11;;;;;;;1.70;1.07;;;9.90;99.90;;;;;;5055786;28;20651;-79
2023/01/07 08:56:36;;;;;;;2.47;1.43;;;9.80;99.90;;;;;;5054731;28;20175;-79
2023/01/07 08:59:02;;;;;;;2.53;0.90;;;9.80;99.90;;;;;;5054443;28;20284;-80
2023/01/07 09:01:27;;;;;;;1.10;0.90;;;9.80;99.90;;;;;;5056150;28;20168;-79
2023/01/07 09:03:53;;;;;;;1.20;1.00;;;9.80;99.90;;;;;;5055724;28;20207;-80
2023/01/07 09:06:18;;;;;;;1.30;0.90;;;9.80;99.90;;;;;;5055217;28;20168;-80
2023/01/07 09:08:44;;;;;;;2.73;1.20;;;9.90;99.90;;;;;;5054149;28;20245;-80
2023/01/07 09:11:10;;;;;;;1.33;1.00;;;9.90;99.90;;;;;;5055308;28;20179;-79
2023/01/07 09:13:35;;;;;;;2.10;1.63;;;9.90;99.90;;;;;;5054183;28;20244;-79
2023/01/07 09:16:01;;;;;;;1.03;0.93;;;10.00;99.90;;;;;;5054079;28;20553;-80
2023/01/07 09:18:26;;;;;;;2.43;0.90;;;9.90;99.90;;;;;;5054771;28;20179;-80
2023/01/07 09:20:52;;;;;;;1.43;0.87;;;10.00;99.90;;;;;;5053968;28;20200;-80
2023/01/07 09:23:17;;;;;;;2.23;0.80;;;10.00;99.90;;;;;;5055219;28;20222;-79
2023/01/07 09:25:43;;;;;;;1.40;1.10;;;10.00;99.90;;;;;;5056122;28;20177;-79
2023/01/07 09:28:08;;;;;;;1.70;0.90;;;10.10;99.90;;;;;;5055490;28;20550;-80
2023/01/07 09:30:34;;;;;;;1.10;0.80;;;10.10;99.90;;;;;;5055515;28;20694;-80
2023/01/07 09:33:00;;;;;;;2.13;0.80;;;10.10;99.90;;;;;;5055695;28;20179;-79
2023/01/07 09:35:25;;;;;;;1.50;0.90;;;10.10;99.90;;;;;;5055540;28;20202;-79
2023/01/07 09:37:51;;;;;;;1.80;0.90;;;10.10;99.90;;;;;;5054721;28;20184;-79
2023/01/07 09:40:29;;;;;;;2.10;0.80;;;10.20;99.90;;;;;;5055386;28;20204;-79
2023/01/07 09:42:59;;;;;;;3.00;0.90;;;10.20;99.90;;;;;;5053631;28;20197;-80
2023/01/07 09:45:36;;;;;;;2.00;1.00;;;10.20;99.90;;;;;;5055264;28;20171;-80
2023/01/07 09:48:10;;;;;;;4.43;1.00;;;10.20;99.90;;;;;;5055549;28;20246;-80
2023/01/07 09:50:49;;;;;;;1.00;0.90;;;10.30;99.90;;;;;;5053767;28;20206;-79
2023/01/07 09:53:29;;;;;;;1.10;0.90;;;10.30;99.90;;;;;;5055102;28;20163;-79
2023/01/07 09:55:55;;;;;;;1.63;0.80;;;10.40;99.90;;;;;;5053647;28;20167;-79
2023/01/07 09:58:22;;;;;;;2.93;1.00;;;10.40;99.90;;;;;;5067005;28;20179;-77
2023/01/07 10:01:14;;;;;;;2.33;0.93;;;10.50;99.90;;;;;;5071217;28;20225;-78
2023/01/07 10:03:50;;;;;;;1.53;0.90;;;10.50;99.90;;;;;;5058108;28;20298;-79
2023/01/07 10:06:46;;;;;;;0.80;0.73;;;10.50;99.90;;;;;;5054533;28;20156;-79
2023/01/07 10:09:32;;;;;;;4.47;1.47;;;10.50;99.90;;;;;;5054793;28;20191;-79
2023/01/07 10:12:30;;;;;;;1.90;0.80;;;10.50;99.90;;;;;;5054628;28;20160;-79
2023/01/07 10:15:11;;;;;;;1.43;1.03;;;10.50;99.90;;;;;;5039551;28;20294;-79
2023/01/07 10:17:48;;;;;;;0.70;0.70;;;10.60;99.90;;;;;;5055050;28;20167;-79
2023/01/07 10:20:44;;;;;;;0.70;0.70;;;10.60;99.90;;;;;;5054653;28;20187;-79
2023/01/07 10:23:27;;;;;;;2.70;1.00;;;10.70;99.90;;;;;;5054705;28;20646;-79
2023/01/07 10:25:55;;;;;;;3.53;1.00;;;10.70;99.90;;;;;;5054969;28;20531;-79
2023/01/07 10:28:39;;;;;;;1.80;1.10;;;10.70;99.90;;;;;;5053247;28;20213;-79
2023/01/07 10:31:14;;;;;;;1.93;0.93;;;10.70;99.90;;;;;;5054369;28;20187;-79
2023/01/07 10:33:39;;;;;;;2.00;1.00;;;10.70;99.90;;;;;;5054753;28;20169;-79
2023/01/07 10:36:27;;;;;;;1.03;0.90;;;10.70;99.90;;;;;;5053485;28;20270;-79
2023/01/07 10:39:30;;;;;;;1.00;0.80;;;10.80;99.90;;;;;;5052972;28;20206;-79
2023/01/07 10:42:14;;;;;;;1.13;0.97;;;10.80;99.90;;;;;;5054228;28;20177;-79
2023/01/07 10:44:47;;;;;;;1.93;1.10;;;10.80;99.90;;;;;;5053156;28;20258;-79
2023/01/07 10:47:49;;;;;;;3.57;1.47;;;10.80;99.90;;;;;;5053379;28;20558;-80
2023/01/07 10:50:44;;;;;;;4.37;1.17;;;10.80;99.90;;;;;;5057776;28;20183;-80
2023/01/07 10:53:42;;;;;;;3.93;0.90;;;10.90;99.90;;;;;;5057125;28;20217;-80
2023/01/07 10:56:39;;;;;;;2.23;1.10;;;11.00;99.90;;;;;;5058270;28;20228;-80
2023/01/07 10:59:12;;;;;;;0.93;0.87;;;11.00;99.90;;;;;;5058138;28;20217;-80
2023/01/07 11:01:39;;;;;;;1.40;1.10;;;11.00;99.90;;;;;;5058176;28;20586;-80
2023/01/07 11:04:14;;;;;;;1.23;1.13;;;11.00;99.90;;;;;;5058607;28;20179;-80
2023/01/07 11:06:57;;;;;;;4.97;1.40;;;11.00;99.90;;;;;;5056709;28;20212;-80
2023/01/07 11:09:26;;;;;;;1.53;1.40;;;11.00;99.90;;;;;;5056952;28;20200;-80
2023/01/07 11:11:54;;;;;;;5.77;1.50;;;11.00;99.90;;;;;;5056824;28;20231;-81
2023/01/07 11:14:29;;;;;;;1.87;1.50;;;11.00;99.90;;;;;;5056805;28;20666;-80
2023/01/07 11:17:05;;;;;;;2.47;1.53;;;11.10;99.90;;;;;;5056453;28;20159;-80
2023/01/07 11:19:43;;;;;;;1.80;1.50;;;11.10;99.90;;;;;;5056924;28;20206;-80
2023/01/07 11:22:27;;;;;;;1.60;1.50;;;11.20;99.90;;;;;;5058603;28;20186;-80
2023/01/07 11:24:54;;;;;;;2.73;1.80;;;11.30;99.90;;;;;;5057992;28;20175;-80
2023/01/07 11:27:23;;;;;;;2.90;1.70;;;11.30;99.90;;;;;;5057199;28;20519;-80
2023/01/07 11:30:06;;;;;;;2.33;1.80;;;11.30;99.90;;;;;;5058245;28;20576;-80
2023/01/07 11:32:39;;;;;;;2.07;1.70;;;11.30;99.90;;;;;;5057055;28;20263;-81
2023/01/07 11:35:19;;;;;;;2.57;1.40;;;11.40;99.90;;;;;;5075537;28;20168;-79
2023/01/07 11:37:47;;;;;;;3.23;1.97;;;11.40;99.90;;;;;;5076941;28;20159;-79
2023/01/07 11:40:13;;;;;;;3.03;1.97;;;11.40;99.90;;;;;;5060680;28;20223;-80
2023/01/07 11:42:55;;;;;;;3.10;1.80;;;11.40;99.90;;;;;;5056472;28;20228;-79
2023/01/07 11:45:34;;;;;;;3.50;2.00;;;11.40;99.90;;;;;;5056225;28;20637;-80
2023/01/07 11:48:14;;;;;;;2.47;1.90;;;11.50;99.90;;;;;;5056015;28;20229;-80
2023/01/07 11:50:56;;;;;;;2.40;2.20;;;11.50;99.90;;;;;;5055803;28;20634;-80
2023/01/07 11:53:37;;;;;;;2.87;1.70;;;11.60;99.90;;;;;;5057617;28;20168;-80
2023/01/07 11:56:11;;;;;;;2.50;1.73;;;11.60;99.90;;;;;;5055832;28;20173;-80
2023/01/07 11:58:42;;;;;;;4.37;1.90;;;11.70;99.90;;;;;;5055766;28;20167;-79
2023/01/07 12:01:11;;;;;;;2.33;1.80;;;11.70;99.90;;;;;;5057512;28;20176;-82
2023/01/07 12:03:50;;;;;;;2.77;1.60;;;11.70;99.90;;;;;;5057804;28;20235;-80
2023/01/07 12:06:19;;;;;;;2.40;1.90;;;11.70;99.90;;;;;;5059061;28;20693;-79
2023/01/07 12:09:22;;;;;;;1.47;1.33;;;11.70;99.90;;;;;;5055542;28;20177;-80
2023/01/07 12:11:48;;;;;;;2.83;1.50;;;11.70;99.90;;;;;;5058040;28;20170;-81
2023/01/07 12:14:27;;;;;;;1.90;1.33;;;11.70;99.90;;;;;;5057715;28;20181;-82
2023/01/07 12:16:55;;;;;;;1.93;1.70;;;11.60;99.90;;;;;;5059512;28;20247;-82
2023/01/07 12:19:44;;;;;;;1.60;1.30;;;11.60;99.90;;;;;;5057463;28;20198;-82
2023/01/07 12:22:29;;;;;;;1.53;1.30;;;11.70;99.90;;;;;;5057102;28;20257;-82
2023/01/07 12:25:03;;;;;;;2.80;1.47;;;11.70;99.90;;;;;;5058067;28;20233;-82
2023/01/07 12:27:37;;;;;;;1.53;1.20;;;11.70;99.90;;;;;;5056903;28;20156;-82
2023/01/07 12:30:39;;;;;;;1.53;1.20;;;11.70;99.90;;;;;;5058341;28;20194;-82
2023/01/07 12:33:25;;;;;;;1.40;1.30;;;11.80;1.00;;;;;;5058090;28;20222;-83
2023/01/07 12:35:54;;;;;;;1.90;1.30;;;11.80;1.00;;;;;;5057389;28;20171;-83
2023/01/07 12:38:34;;;;;;;1.20;1.00;;;11.80;1.00;;;;;;5057693;28;20175;-83
2023/01/07 12:41:09;;;;;;;3.23;0.90;;;11.80;1.00;;;;;;5059351;28;20156;-83
2023/01/07 12:43:44;;;;;;;0.70;0.70;;;11.80;1.00;;;;;;5057668;28;20199;-83
2023/01/07 12:46:12;;;;;;;0.97;0.80;;;11.80;1.00;;;;;;5060176;28;20152;-83
2023/01/07 12:49:01;;;;;;;0.90;0.80;;;11.80;1.00;;;;;;5058016;28;20167;-83
2023/01/07 12:51:33;;;;;;;0.87;0.73;;;11.80;1.00;;;;;;5058816;28;20171;-83
2023/01/07 12:54:04;;;;;;;1.03;0.80;;;11.80;1.00;;;;;;5059848;28;20164;-83
2023/01/07 12:56:37;;;;;;;0.50;0.50;;;11.80;1.00;;;;;;5059533;28;20171;-83
2023/01/07 12:59:25;;;;;;;0.83;0.70;;;11.80;1.00;;;;;;5058855;28;20192;-83
2023/01/07 13:02:11;;;;;;;2.57;1.00;;;11.80;99.90;;;;;;5059140;28;20194;-83
2023/01/07 13:05:03;;;;;;;0.80;0.70;;;11.80;99.90;;;;;;5057685;28;20163;-83
2023/01/07 13:07:41;;;;;;;1.33;0.73;;;11.80;99.90;;;;;;5056565;28;20667;-83
2023/01/07 13:10:17;;;;;;;1.43;0.93;;;11.80;99.90;;;;;;5062782;28;20175;-81